createdAt,value
2018-12-03T00:01:19.327Z,0.47
2018-12-03T00:03:46.765Z,0.70
2018-12-03T00:06:17.631Z,1.37
2018-12-03T00:08:45.073Z,0.50
2018-12-03T00:11:14.899Z,0.50
2018-12-03T00:16:13.700Z,0.30
2018-12-03T00:18:41.126Z,0.57
2018-12-03T00:21:08.572Z,0.30
2018-12-03T00:23:36.022Z,0.50
2018-12-03T00:26:23.190Z,0.43
2018-12-03T00:28:50.701Z,2.90
2018-12-03T00:31:18.173Z,0.40
2018-12-03T00:36:17.578Z,0.30
2018-12-03T00:41:17.491Z,1.37
2018-12-03T00:43:44.968Z,1.23
2018-12-03T00:48:41.297Z,0.63
2018-12-03T00:51:08.779Z,1.30
2018-12-03T00:53:36.846Z,0.30
2018-12-03T00:56:23.982Z,0.27
2018-12-03T01:03:52.418Z,0.20
2018-12-03T01:08:51.799Z,0.20
2018-12-03T01:13:48.242Z,0.77
2018-12-03T01:16:35.349Z,0.30
2018-12-03T01:19:02.813Z,0.30
2018-12-03T01:21:30.255Z,0.20
2018-12-03T01:23:59.569Z,0.70
2018-12-03T01:26:27.024Z,0.20
2018-12-03T01:28:54.480Z,0.20
2018-12-03T01:31:21.926Z,0.20
2018-12-03T01:33:49.398Z,0.23
2018-12-03T01:36:36.514Z,0.20
2018-12-03T01:39:06.310Z,0.20
2018-12-03T01:41:33.753Z,0.30
2018-12-03T01:44:01.218Z,1.13
2018-12-03T01:46:28.670Z,0.60
2018-12-03T01:48:56.129Z,0.30
2018-12-03T01:51:23.571Z,0.53
2018-12-03T01:53:50.735Z,0.40
2018-12-03T01:58:47.082Z,0.20
2018-12-03T02:01:14.517Z,1.87
2018-12-03T02:03:41.980Z,0.43
2018-12-03T02:06:29.097Z,0.63
2018-12-03T02:08:56.573Z,0.40
2018-12-03T02:13:52.917Z,0.60
2018-12-03T02:16:40.038Z,0.77
2018-12-03T02:19:07.493Z,0.60
2018-12-03T02:21:34.942Z,1.30
2018-12-03T02:24:05.167Z,0.50
2018-12-03T02:26:32.613Z,1.30
2018-12-03T02:29:00.221Z,0.70
2018-12-03T02:31:27.648Z,0.97
2018-12-03T02:33:55.119Z,0.73
2018-12-03T02:38:51.027Z,0.67
2018-12-03T02:41:18.494Z,1.20
2018-12-03T02:43:45.956Z,0.80
2018-12-03T02:46:33.072Z,0.60
2018-12-03T02:49:00.524Z,1.10
2018-12-03T02:51:27.973Z,1.50
2018-12-03T02:53:55.444Z,0.70
2018-12-03T02:56:42.565Z,0.60
2018-12-03T02:59:10.015Z,0.40
2018-12-03T03:01:37.461Z,0.90
2018-12-03T03:04:05.694Z,0.60
2018-12-03T03:06:33.144Z,0.60
2018-12-03T03:09:00.770Z,0.93
2018-12-03T03:11:28.214Z,2.50
2018-12-03T03:13:55.673Z,2.20
2018-12-03T03:16:42.787Z,0.80
2018-12-03T03:19:13.344Z,0.60
2018-12-03T03:24:29.369Z,0.70
2018-12-03T03:26:56.913Z,0.77
2018-12-03T03:29:24.385Z,0.50
2018-12-03T03:31:51.817Z,0.40
2018-12-03T03:34:39.005Z,0.40
2018-12-03T03:37:06.486Z,0.93
2018-12-03T03:39:33.945Z,0.50
2018-12-03T03:42:01.457Z,0.50
2018-12-03T03:44:31.230Z,0.50
2018-12-03T03:46:58.678Z,0.90
2018-12-03T03:49:26.128Z,0.50
2018-12-03T03:51:53.570Z,0.60
2018-12-03T03:54:40.698Z,0.90
2018-12-03T03:57:08.151Z,0.70
2018-12-03T03:59:35.602Z,0.30
2018-12-03T04:02:03.048Z,0.40
2018-12-03T04:04:50.166Z,2.17
2018-12-03T04:07:17.607Z,0.60
2018-12-03T04:09:45.243Z,3.00
2018-12-03T04:14:44.353Z,1.40
2018-12-03T04:17:11.790Z,4.33
2018-12-03T04:19:39.237Z,2.47
2018-12-03T04:24:35.808Z,0.57
2018-12-03T04:27:03.335Z,0.20
2018-12-03T04:29:30.790Z,0.40
2018-12-03T04:31:58.247Z,0.30
2018-12-03T04:34:28.510Z,0.30
2018-12-03T04:39:27.846Z,0.20
2018-12-03T04:44:23.846Z,0.30
2018-12-03T04:49:20.482Z,0.20
2018-12-03T04:54:17.947Z,1.03
2018-12-03T05:01:48.776Z,0.30
2018-12-03T05:06:51.860Z,0.40
2018-12-03T05:14:26.917Z,1.10
2018-12-03T05:19:23.269Z,1.13
2018-12-03T05:24:23.189Z,1.60
2018-12-03T05:29:22.241Z,2.20
2018-12-03T05:34:18.312Z,2.93
2018-12-03T05:41:43.572Z,3.37
2018-12-03T05:46:42.701Z,2.27
2018-12-03T05:51:39.459Z,2.93
2018-12-03T05:56:37.990Z,2.43
2018-12-03T06:01:35.061Z,5.10
2018-12-03T06:06:33.857Z,2.13
2018-12-03T06:11:33.049Z,1.93
2018-12-03T06:16:29.418Z,3.50
2018-12-03T06:21:28.282Z,2.43
2018-12-03T06:26:27.713Z,2.60
2018-12-03T06:33:58.385Z,4.63
2018-12-03T06:36:25.150Z,2.80
2018-12-03T06:41:21.915Z,1.87
2018-12-03T06:46:18.153Z,2.53
2018-12-03T06:51:14.402Z,4.67
2018-12-03T06:56:10.729Z,4.30
2018-12-03T07:01:08.193Z,2.87
2018-12-03T07:06:07.318Z,1.40
2018-12-03T07:11:04.873Z,1.30
2018-12-03T07:13:35.301Z,3.63
2018-12-03T07:18:37.520Z,1.00
2018-12-03T07:21:05.664Z,1.53
2018-12-03T07:25:59.129Z,1.40
2018-12-03T07:30:55.739Z,1.47
2018-12-03T07:38:21.995Z,1.87
2018-12-03T07:43:18.128Z,3.30
2018-12-03T07:48:16.945Z,2.93
2018-12-03T07:50:46.306Z,1.47
2018-12-03T07:53:13.494Z,1.10
2018-12-03T07:58:10.565Z,2.27
2018-12-03T08:05:39.240Z,1.20
2018-12-03T08:08:09.358Z,1.20
2018-12-03T08:10:36.813Z,1.03
2018-12-03T08:13:04.824Z,1.70
2018-12-03T08:20:36.076Z,1.80
2018-12-03T08:23:04.191Z,1.20
2018-12-03T08:28:01.056Z,0.97
2018-12-03T08:32:59.734Z,1.50
2018-12-03T08:37:56.850Z,1.27
2018-12-03T08:45:25.416Z,1.03
2018-12-03T08:47:53.616Z,1.00
2018-12-03T08:52:52.270Z,2.63
2018-12-03T08:55:39.381Z,1.30
2018-12-03T08:58:09.404Z,1.17
2018-12-03T09:00:36.867Z,0.87
2018-12-03T09:03:04.815Z,1.77
2018-12-03T09:05:51.945Z,1.10
2018-12-03T09:08:19.402Z,1.10
2018-12-03T09:10:46.856Z,1.83
2018-12-03T09:13:14.395Z,1.10
2018-12-03T09:16:01.541Z,2.03
2018-12-03T09:18:30.545Z,1.00
2018-12-03T09:20:58.006Z,1.30
2018-12-03T09:23:25.448Z,1.47
2018-12-03T09:28:21.822Z,0.63
2018-12-03T09:33:18.335Z,1.00
2018-12-03T09:40:46.690Z,1.43
2018-12-03T09:43:14.121Z,0.63
2018-12-03T09:46:01.232Z,0.97
2018-12-03T09:48:28.688Z,1.33
2018-12-03T09:50:56.139Z,0.53
2018-12-03T09:53:23.610Z,2.00
2018-12-03T09:56:10.721Z,1.13
2018-12-03T09:58:40.842Z,0.97
2018-12-03T10:03:39.537Z,0.40
2018-12-03T10:06:26.662Z,1.40
2018-12-03T10:08:54.117Z,0.40
2018-12-03T10:11:21.561Z,0.83
2018-12-03T10:13:49.049Z,2.83
2018-12-03T10:16:38.092Z,0.73
2018-12-03T10:19:05.552Z,1.53
2018-12-03T10:21:33.005Z,0.73
2018-12-03T10:24:00.465Z,0.90
2018-12-03T10:26:27.908Z,3.77
2018-12-03T10:28:55.377Z,0.40
2018-12-03T10:31:22.822Z,1.37
2018-12-03T10:33:50.268Z,0.67
2018-12-03T10:38:46.629Z,0.50
2018-12-03T10:41:14.073Z,0.97
2018-12-03T10:43:44.205Z,0.70
2018-12-03T10:48:40.565Z,0.40
2018-12-03T10:51:09.978Z,0.50
2018-12-03T10:53:37.466Z,0.93
2018-12-03T10:56:24.646Z,1.27
2018-12-03T10:58:53.251Z,0.60
2018-12-03T11:03:50.381Z,0.40
2018-12-03T11:08:49.739Z,1.13
2018-12-03T11:16:22.096Z,3.37
2018-12-03T11:18:49.610Z,0.80
2018-12-03T11:21:17.049Z,1.23
2018-12-03T11:23:44.476Z,1.50
2018-12-03T11:26:31.607Z,1.70
2018-12-03T11:29:01.658Z,1.90
2018-12-03T11:33:58.034Z,1.17
2018-12-03T11:36:25.449Z,0.80
2018-12-03T11:38:53.338Z,0.60
2018-12-03T11:41:20.782Z,1.50
2018-12-03T11:43:48.203Z,0.73
2018-12-03T11:46:35.345Z,1.67
2018-12-03T11:49:02.787Z,1.00
2018-12-03T11:51:30.240Z,1.77
2018-12-03T11:53:59.028Z,1.40
2018-12-03T11:56:26.567Z,1.53
2018-12-03T11:58:54.009Z,1.80
2018-12-03T12:01:21.445Z,1.40
2018-12-03T12:03:48.892Z,2.33
2018-12-03T12:06:17.369Z,0.90
2018-12-03T12:11:13.718Z,1.20
2018-12-03T12:13:41.141Z,1.13
2018-12-03T12:16:28.282Z,0.50
2018-12-03T12:18:55.722Z,1.10
2018-12-03T12:21:23.194Z,2.00
2018-12-03T12:23:50.659Z,1.10
2018-12-03T12:26:20.638Z,1.60
2018-12-03T12:28:48.093Z,0.63
2018-12-03T12:31:18.141Z,0.87
2018-12-03T12:33:45.567Z,0.50
2018-12-03T12:36:15.767Z,1.17
2018-12-03T12:38:43.257Z,2.07
2018-12-03T12:41:10.757Z,1.93
2018-12-03T12:48:39.914Z,1.70
2018-12-03T12:51:07.353Z,0.23
2018-12-03T12:53:34.789Z,1.27
2018-12-03T12:56:04.609Z,1.70
2018-12-03T12:58:32.057Z,0.40
2018-12-03T13:00:59.501Z,1.07
2018-12-03T13:03:26.964Z,0.57
2018-12-03T13:06:14.079Z,0.37
2018-12-03T13:08:41.533Z,1.33
2018-12-03T13:11:09.323Z,0.87
2018-12-03T13:16:25.351Z,1.03
2018-12-03T13:18:52.902Z,0.70
2018-12-03T13:21:22.233Z,1.30
2018-12-03T13:23:49.744Z,1.03
2018-12-03T13:28:48.553Z,0.50
2018-12-03T13:33:44.985Z,2.00
2018-12-03T13:38:41.992Z,0.80
2018-12-03T13:41:09.465Z,3.07
2018-12-03T13:45:01.924Z,0.93
2018-12-03T13:50:45.203Z,0.80
2018-12-03T13:53:14.363Z,0.87
2018-12-03T13:55:45.178Z,2.10
2018-12-03T13:58:18.961Z,1.50
2018-12-03T14:00:49.783Z,1.90
2018-12-03T14:03:18.721Z,1.93
2018-12-03T14:05:49.808Z,2.33
2018-12-03T14:08:20.352Z,1.50
2018-12-03T14:10:53.724Z,2.77
2018-12-03T14:13:22.367Z,1.67
2018-12-03T14:15:51.010Z,4.40
2018-12-03T14:18:21.532Z,5.00
2018-12-03T14:20:52.288Z,3.30
2018-12-03T14:23:26.198Z,3.17
2018-12-03T14:25:57.240Z,4.73
2018-12-03T14:28:26.084Z,13.07
2018-12-03T14:30:56.559Z,10.60
2018-12-03T14:33:24.015Z,38.10
2018-12-03T14:35:51.454Z,10.53
2018-12-03T14:38:18.983Z,6.40
2018-12-03T14:40:49.731Z,3.17
2018-12-03T14:43:17.423Z,1.33
2018-12-03T14:47:17.674Z,0.80
2018-12-03T14:49:51.032Z,0.67
2018-12-03T14:52:25.093Z,1.63
2018-12-03T14:54:58.956Z,1.97
2018-12-03T14:57:30.093Z,1.97
2018-12-03T14:59:58.923Z,2.07
2018-12-03T15:02:32.102Z,1.23
2018-12-03T15:05:06.017Z,1.10
2018-12-03T15:07:33.564Z,1.50
2018-12-03T15:10:00.999Z,1.13
2018-12-03T15:12:35.471Z,2.43
2018-12-03T15:15:03.184Z,0.93
2018-12-03T15:17:30.728Z,0.70
2018-12-03T15:19:58.181Z,4.40
2018-12-03T15:22:29.170Z,2.23
2018-12-03T15:24:56.623Z,3.83
2018-12-03T15:27:24.118Z,2.73
2018-12-03T15:29:54.890Z,3.40
2018-12-03T15:32:26.278Z,2.20
2018-12-03T15:34:53.808Z,2.33
2018-12-03T15:37:21.214Z,1.87
2018-12-03T15:39:48.696Z,5.63
2018-12-03T15:42:20.810Z,6.80
2018-12-03T15:44:48.309Z,3.07
2018-12-03T15:47:15.839Z,2.07
2018-12-03T15:49:43.291Z,3.13
2018-12-03T15:52:14.240Z,2.33
2018-12-03T15:54:41.685Z,2.83
2018-12-03T15:57:09.118Z,3.57
2018-12-03T15:59:36.549Z,1.07
2018-12-03T16:02:07.448Z,1.00
2018-12-03T16:04:35.029Z,3.63
2018-12-03T16:07:02.579Z,2.27
2018-12-03T16:09:30.015Z,4.70
2018-12-03T16:12:00.639Z,3.97
2018-12-03T16:14:28.080Z,4.13
2018-12-03T16:16:55.563Z,2.33
2018-12-03T16:19:23.118Z,1.43
2018-12-03T16:21:53.825Z,1.27
2018-12-03T16:24:21.222Z,1.53
2018-12-03T16:26:48.664Z,1.10
2018-12-03T16:29:16.118Z,1.33
2018-12-03T16:31:46.899Z,2.50
2018-12-03T16:34:14.333Z,1.90
2018-12-03T16:36:41.791Z,3.03
2018-12-03T16:39:09.252Z,3.57
2018-12-03T16:41:42.541Z,3.70
2018-12-03T16:44:16.235Z,2.87
2018-12-03T16:46:43.728Z,3.13
2018-12-03T16:49:11.155Z,1.07
2018-12-03T16:51:41.943Z,3.63
2018-12-03T16:54:09.366Z,2.97
2018-12-03T16:56:36.966Z,1.43
2018-12-03T16:59:04.389Z,1.57
2018-12-03T17:01:35.256Z,1.90
2018-12-03T17:04:02.711Z,3.53
2018-12-03T17:06:30.244Z,1.47
2018-12-03T17:08:57.708Z,1.17
2018-12-03T17:11:28.518Z,2.90
2018-12-03T17:13:55.939Z,1.97
2018-12-03T17:16:23.395Z,2.60
2018-12-03T17:18:50.856Z,2.00
2018-12-03T17:21:21.666Z,1.57
2018-12-03T17:23:49.163Z,1.57
2018-12-03T17:26:17.264Z,2.83
2018-12-03T17:28:44.696Z,2.17
2018-12-03T17:31:15.168Z,0.80
2018-12-03T17:33:42.628Z,2.70
2018-12-03T17:36:10.129Z,2.60
2018-12-03T17:38:37.553Z,1.50
2018-12-03T17:41:11.035Z,1.97
2018-12-03T17:43:39.983Z,2.43
2018-12-03T17:46:07.447Z,4.53
2018-12-03T17:48:34.923Z,3.03
2018-12-03T17:51:05.458Z,3.57
2018-12-03T17:53:32.930Z,5.13
2018-12-03T17:56:00.372Z,1.77
2018-12-03T17:58:27.810Z,2.80
2018-12-03T18:01:01.333Z,2.87
2018-12-03T18:03:30.036Z,4.20
2018-12-03T18:05:57.786Z,3.83
2018-12-03T18:08:25.235Z,4.13
2018-12-03T18:10:55.687Z,3.83
2018-12-03T18:13:23.110Z,4.33
2018-12-03T18:15:56.619Z,5.00
2018-12-03T18:18:30.336Z,3.13
2018-12-03T18:21:04.044Z,2.67
2018-12-03T18:23:31.495Z,3.70
2018-12-03T18:25:59.064Z,4.27
2018-12-03T18:28:30.033Z,4.20
2018-12-03T18:31:00.809Z,4.07
2018-12-03T18:33:34.234Z,5.63
2018-12-03T18:36:01.711Z,3.73
2018-12-03T18:38:29.225Z,4.37
2018-12-03T18:41:03.303Z,7.57
2018-12-03T18:43:36.120Z,4.50
2018-12-03T18:46:09.660Z,0.93
2018-12-03T18:48:43.664Z,1.67
2018-12-03T18:51:14.336Z,1.63
2018-12-03T18:53:47.925Z,0.60
2018-12-03T18:56:15.405Z,1.53
2018-12-03T18:58:43.073Z,3.17
2018-12-03T19:01:13.864Z,0.60
2018-12-03T19:03:41.320Z,1.80
2018-12-03T19:06:12.085Z,1.23
2018-12-03T19:08:42.777Z,2.37
2018-12-03T19:11:13.492Z,3.50
2018-12-03T19:13:40.995Z,2.87
2018-12-03T19:16:11.492Z,1.93
2018-12-03T19:18:42.123Z,4.47
2018-12-03T19:21:15.668Z,4.80
2018-12-03T19:23:43.233Z,6.67
2018-12-03T19:26:17.243Z,7.33
2018-12-03T19:28:44.710Z,7.60
2018-12-03T19:31:18.226Z,2.67
2018-12-03T19:33:45.697Z,6.47
2018-12-03T19:36:19.592Z,2.60
2018-12-03T19:38:47.059Z,4.07
2018-12-03T19:41:20.724Z,4.37
2018-12-03T19:43:48.172Z,5.00
2018-12-03T19:46:15.602Z,1.80
2018-12-03T19:48:49.272Z,2.23
2018-12-03T19:51:23.020Z,2.33
2018-12-03T19:53:50.528Z,3.27
2018-12-03T19:56:17.960Z,2.67
2018-12-03T19:58:45.402Z,4.37
2018-12-03T20:01:16.465Z,4.33
2018-12-03T20:03:43.997Z,2.77
2018-12-03T20:06:11.524Z,6.00
2018-12-03T20:08:39.099Z,3.27
2018-12-03T20:11:09.719Z,3.43
2018-12-03T20:13:37.178Z,4.10
2018-12-03T20:16:04.642Z,6.93
2018-12-03T20:18:32.127Z,3.57
2018-12-03T20:21:02.870Z,7.10
2018-12-03T20:23:30.406Z,5.33
2018-12-03T20:25:58.414Z,4.90
2018-12-03T20:28:26.222Z,6.93
2018-12-03T20:30:59.264Z,7.57
2018-12-03T20:33:27.784Z,8.47
2018-12-03T20:35:55.416Z,10.17
2018-12-03T20:38:23.079Z,10.17
2018-12-03T20:40:56.595Z,7.10
2018-12-03T20:43:30.320Z,6.37
2018-12-03T20:46:03.939Z,4.80
2018-12-03T20:48:34.558Z,7.80
2018-12-03T20:51:06.085Z,5.87
2018-12-03T20:53:33.904Z,5.37
2018-12-03T20:56:01.399Z,6.00
2018-12-03T20:58:28.838Z,6.00
2018-12-03T21:00:59.428Z,3.30
2018-12-03T21:03:26.922Z,4.43
2018-12-03T21:05:54.342Z,3.97
2018-12-03T21:08:21.817Z,4.03
2018-12-03T21:10:52.964Z,6.43
2018-12-03T21:13:20.426Z,3.80
2018-12-03T21:15:47.866Z,4.43
2018-12-03T21:18:15.371Z,4.00
2018-12-03T21:20:46.431Z,5.50
2018-12-03T21:23:13.941Z,7.70
2018-12-03T21:25:41.471Z,4.37
2018-12-03T21:28:08.938Z,5.50
2018-12-03T21:30:39.308Z,8.97
2018-12-03T21:33:06.827Z,3.27
2018-12-03T21:35:34.270Z,7.17
2018-12-03T21:38:01.792Z,10.00
2018-12-03T21:40:32.275Z,8.57
2018-12-03T21:42:59.787Z,6.57
2018-12-03T21:45:27.292Z,6.83
2018-12-03T21:47:54.712Z,5.37
2018-12-03T21:50:23.064Z,5.83
2018-12-03T21:52:50.611Z,6.80
2018-12-03T21:55:18.093Z,7.57
2018-12-03T21:57:45.603Z,6.43
2018-12-03T22:00:14.978Z,6.27
2018-12-03T22:02:42.431Z,10.10
2018-12-03T22:05:09.883Z,7.67
2018-12-03T22:07:37.347Z,7.00
2018-12-03T22:10:06.441Z,7.00
2018-12-03T22:12:37.261Z,5.07
2018-12-03T22:15:05.476Z,7.70
2018-12-03T22:17:32.902Z,5.00
2018-12-03T22:20:00.339Z,7.80
2018-12-03T22:22:31.236Z,5.10
2018-12-03T22:24:58.695Z,7.20
2018-12-03T22:27:26.129Z,6.63
2018-12-03T22:29:53.564Z,6.30
2018-12-03T22:32:24.421Z,10.70
2018-12-03T22:34:51.879Z,8.57
2018-12-03T22:37:19.315Z,8.97
2018-12-03T22:39:46.771Z,11.10
2018-12-03T22:42:17.292Z,10.00
2018-12-03T22:44:44.736Z,5.40
2018-12-03T22:47:12.171Z,8.47
2018-12-03T22:49:39.633Z,7.03
2018-12-03T22:52:10.104Z,5.60
2018-12-03T22:54:37.582Z,2.87
2018-12-03T22:57:05.041Z,5.17
2018-12-03T22:59:32.523Z,5.60
2018-12-03T23:02:03.245Z,6.60
2018-12-03T23:04:32.628Z,6.33
2018-12-03T23:07:00.099Z,6.97
2018-12-03T23:09:27.543Z,3.90
2018-12-03T23:11:58.235Z,6.13
2018-12-03T23:14:25.740Z,8.53
2018-12-03T23:16:53.175Z,5.87
2018-12-03T23:19:20.625Z,7.13
2018-12-03T23:21:51.126Z,7.70
2018-12-03T23:24:18.576Z,5.10
2018-12-03T23:26:46.032Z,5.00
2018-12-03T23:29:13.481Z,3.57
2018-12-03T23:31:44.240Z,6.37
2018-12-03T23:34:11.695Z,5.40
2018-12-03T23:36:39.243Z,5.83
2018-12-03T23:39:07.162Z,4.57
2018-12-03T23:41:38.226Z,3.53
2018-12-03T23:44:05.751Z,5.53
2018-12-03T23:46:33.251Z,5.33
2018-12-03T23:49:00.669Z,5.60
2018-12-03T23:51:36.189Z,4.47
2018-12-03T23:54:01.185Z,6.53
2018-12-03T23:56:28.619Z,5.30
2018-12-03T23:58:56.071Z,4.03
